createdAt,value
2022-10-09T00:01:19.118Z,91.60
2022-10-09T00:06:46.876Z,91.60
2022-10-09T00:12:14.682Z,91.60
2022-10-09T00:17:42.417Z,92.10
2022-10-09T00:23:12.027Z,92.10
2022-10-09T00:28:40.011Z,92.20
2022-10-09T00:34:07.855Z,92.20
2022-10-09T00:39:36.107Z,92.20
2022-10-09T00:45:05.207Z,92.20
2022-10-09T00:50:44.577Z,92.20
2022-10-09T00:56:12.505Z,92.20
2022-10-09T01:01:42.117Z,92.20
2022-10-09T01:07:38.379Z,92.20
2022-10-09T01:13:22.506Z,92.30
2022-10-09T01:19:11.443Z,92.30
2022-10-09T01:24:55.314Z,92.30
2022-10-09T01:30:23.255Z,92.30
2022-10-09T01:35:51.903Z,92.30
2022-10-09T01:41:20.919Z,92.30
2022-10-09T01:46:49.024Z,92.40
2022-10-09T01:52:47.705Z,92.40
2022-10-09T01:58:37.646Z,92.30
2022-10-09T02:04:10.435Z,92.40
2022-10-09T02:09:39.771Z,92.40
2022-10-09T02:15:09.260Z,92.40
2022-10-09T02:20:42.519Z,92.50
2022-10-09T02:26:11.710Z,92.40
2022-10-09T02:31:42.315Z,92.50
2022-10-09T02:37:10.313Z,92.40
2022-10-09T02:42:38.214Z,92.50
2022-10-09T02:48:06.908Z,92.50
2022-10-09T02:53:34.842Z,92.50
2022-10-09T02:59:02.669Z,92.50
2022-10-09T03:04:30.470Z,92.40
2022-10-09T03:09:58.843Z,92.50
2022-10-09T03:15:26.640Z,92.50
2022-10-09T03:20:54.380Z,92.50
2022-10-09T03:26:26.386Z,92.50
2022-10-09T03:31:54.161Z,92.50
2022-10-09T03:37:21.888Z,92.50
2022-10-09T03:42:49.956Z,92.50
2022-10-09T03:48:18.146Z,92.50
2022-10-09T03:53:46.066Z,92.50
2022-10-09T03:59:13.926Z,92.50
2022-10-09T04:04:41.661Z,92.60
2022-10-09T04:10:10.471Z,92.60
2022-10-09T04:15:38.345Z,92.60
2022-10-09T04:21:06.666Z,92.60
2022-10-09T04:26:35.638Z,92.60
2022-10-09T04:32:03.788Z,92.60
2022-10-09T04:37:31.722Z,92.60
2022-10-09T04:42:59.455Z,92.60
2022-10-09T04:48:27.176Z,92.60
2022-10-09T04:54:00.484Z,92.60
2022-10-09T04:59:28.629Z,92.60
2022-10-09T05:04:57.409Z,92.60
2022-10-09T05:10:25.263Z,92.60
2022-10-09T05:15:53.156Z,92.60
2022-10-09T05:21:22.318Z,92.60
2022-10-09T05:26:50.214Z,92.60
2022-10-09T05:32:18.022Z,92.60
2022-10-09T05:37:45.889Z,92.60
2022-10-09T05:43:13.633Z,92.60
2022-10-09T05:48:44.133Z,92.60
2022-10-09T05:54:17.345Z,92.60
2022-10-09T05:59:45.207Z,92.60
2022-10-09T06:05:13.115Z,92.60
2022-10-09T06:10:40.906Z,92.70
2022-10-09T06:16:11.791Z,92.60
2022-10-09T06:21:40.145Z,92.60
2022-10-09T06:27:08.566Z,92.70
2022-10-09T06:32:36.610Z,92.70
2022-10-09T06:38:04.455Z,92.70
2022-10-09T06:43:32.701Z,92.60
2022-10-09T06:49:02.653Z,92.70
2022-10-09T06:54:30.445Z,92.70
2022-10-09T06:59:58.185Z,92.70
2022-10-09T07:05:26.029Z,92.70
2022-10-09T07:10:53.833Z,92.80
2022-10-09T07:16:28.183Z,92.80
2022-10-09T07:21:56.176Z,92.80
2022-10-09T07:27:24.426Z,92.90
2022-10-09T07:32:52.244Z,92.90
2022-10-09T07:38:20.045Z,93.00
2022-10-09T07:43:48.092Z,93.00
2022-10-09T07:49:15.826Z,93.10
2022-10-09T07:54:43.583Z,93.10
2022-10-09T08:00:12.284Z,93.10
2022-10-09T08:05:39.972Z,93.20
2022-10-09T08:11:14.949Z,92.70
2022-10-09T08:16:42.883Z,92.70
2022-10-09T08:22:12.352Z,92.80
2022-10-09T08:27:40.272Z,92.80
2022-10-09T08:33:08.118Z,92.90
2022-10-09T08:38:47.288Z,93.00
2022-10-09T08:44:39.730Z,92.90
2022-10-09T08:50:17.292Z,92.90
2022-10-09T08:56:01.971Z,92.90
2022-10-09T09:02:01.473Z,92.90
2022-10-09T09:08:22.471Z,92.80
2022-10-09T09:14:00.603Z,92.80
2022-10-09T09:20:22.091Z,92.60
2022-10-09T09:25:50.048Z,92.60
2022-10-09T09:31:31.525Z,92.40
2022-10-09T09:36:59.536Z,92.40
2022-10-09T09:42:28.765Z,92.30
2022-10-09T09:48:08.029Z,92.20
2022-10-09T09:53:40.787Z,92.20
2022-10-09T09:59:37.079Z,92.10
2022-10-09T10:05:27.448Z,92.00
2022-10-09T10:11:06.875Z,91.90
2022-10-09T10:16:38.761Z,91.70
2022-10-09T10:22:24.608Z,91.60
2022-10-09T10:28:03.974Z,91.50
2022-10-09T10:33:36.662Z,91.40
2022-10-09T10:39:35.915Z,91.30
2022-10-09T10:45:46.855Z,91.30
2022-10-09T10:51:59.870Z,91.10
2022-10-09T10:58:03.854Z,91.10
2022-10-09T11:03:59.230Z,91.00
2022-10-09T11:10:03.607Z,90.90
2022-10-09T11:16:13.251Z,90.70
2022-10-09T11:22:11.072Z,90.70
2022-10-09T11:27:57.527Z,90.50
2022-10-09T11:33:54.823Z,90.40
2022-10-09T11:39:26.178Z,90.40
2022-10-09T11:45:03.036Z,90.40
2022-10-09T11:50:52.841Z,90.30
2022-10-09T11:56:25.088Z,90.30
2022-10-09T12:01:53.971Z,90.10
2022-10-09T12:13:39.375Z,90.00
2022-10-09T12:19:35.031Z,90.00
2022-10-09T12:25:16.911Z,89.60
2022-10-09T12:30:49.287Z,89.50
2022-10-09T12:36:25.338Z,89.30
2022-10-09T12:41:57.137Z,89.10
2022-10-09T12:47:28.393Z,89.00
2022-10-09T12:53:00.737Z,88.90
2022-10-09T12:58:39.419Z,88.50
2022-10-09T13:04:09.431Z,88.50
2022-10-09T13:09:40.383Z,88.40
2022-10-09T13:15:33.705Z,88.00
2022-10-09T13:21:32.697Z,87.60
2022-10-09T13:27:04.850Z,87.60
2022-10-09T13:32:32.732Z,87.50
2022-10-09T13:38:00.529Z,87.50
2022-10-09T13:43:34.881Z,87.50
2022-10-09T13:49:02.643Z,87.40
2022-10-09T13:54:30.722Z,87.20
2022-10-09T13:59:58.601Z,87.20
2022-10-09T14:05:26.941Z,87.00
2022-10-09T14:10:54.837Z,87.10
2022-10-09T14:16:22.904Z,87.10
2022-10-09T14:21:50.709Z,87.00
2022-10-09T14:27:18.565Z,86.90
2022-10-09T14:32:46.799Z,87.00
2022-10-09T14:38:14.922Z,87.00
2022-10-09T14:43:42.728Z,87.00
2022-10-09T14:49:11.304Z,87.10
2022-10-09T14:54:39.323Z,87.10
2022-10-09T15:00:08.852Z,87.10
2022-10-09T15:05:36.661Z,87.30
2022-10-09T15:11:05.577Z,87.40
2022-10-09T15:16:33.697Z,87.50
2022-10-09T15:22:01.518Z,87.70
2022-10-09T15:27:29.341Z,87.70
2022-10-09T15:33:01.419Z,87.70
2022-10-09T15:38:29.272Z,87.80
2022-10-09T15:44:01.196Z,87.80
2022-10-09T15:49:28.953Z,87.80
2022-10-09T15:54:56.780Z,87.80
2022-10-09T16:00:24.576Z,87.80
2022-10-09T16:05:52.916Z,87.80
2022-10-09T16:11:25.063Z,87.80
2022-10-09T16:16:54.853Z,87.70
2022-10-09T16:22:22.640Z,87.70
2022-10-09T16:27:50.472Z,87.60
2022-10-09T16:33:18.810Z,87.60
2022-10-09T16:38:46.931Z,87.50
2022-10-09T16:44:16.999Z,87.50
2022-10-09T16:49:44.791Z,87.50
2022-10-09T16:55:12.594Z,87.40
2022-10-09T17:00:40.435Z,87.30
2022-10-09T17:06:11.558Z,87.40
2022-10-09T17:11:40.111Z,87.20
2022-10-09T17:17:11.158Z,87.20
2022-10-09T17:22:39.014Z,87.10
2022-10-09T17:28:08.066Z,87.20
2022-10-09T17:33:41.177Z,87.10
2022-10-09T17:39:16.789Z,87.20
2022-10-09T17:44:44.534Z,87.10
2022-10-09T17:50:12.462Z,87.20
2022-10-09T17:55:40.182Z,87.10
2022-10-09T18:01:10.496Z,87.00
2022-10-09T18:06:38.468Z,87.10
2022-10-09T18:12:06.251Z,87.00
2022-10-09T18:17:34.640Z,87.00
2022-10-09T18:23:03.651Z,87.00
2022-10-09T18:28:31.687Z,87.00
2022-10-09T18:34:01.115Z,87.10
2022-10-09T18:39:29.029Z,87.10
2022-10-09T18:44:56.906Z,87.00
2022-10-09T18:50:24.801Z,87.00
2022-10-09T18:55:52.683Z,87.00
2022-10-09T19:01:20.915Z,87.10
2022-10-09T19:06:54.035Z,87.10
2022-10-09T19:12:21.920Z,87.10
2022-10-09T19:17:50.572Z,87.20
2022-10-09T19:23:19.089Z,87.30
2022-10-09T19:28:47.267Z,87.30
2022-10-09T19:34:16.143Z,87.30
2022-10-09T19:39:51.664Z,87.40
2022-10-09T19:45:23.772Z,87.40
2022-10-09T19:50:52.682Z,87.40
2022-10-09T19:56:33.428Z,87.40
2022-10-09T20:02:05.199Z,87.30
2022-10-09T20:07:43.067Z,87.50
2022-10-09T20:13:19.789Z,87.50
2022-10-09T20:18:57.986Z,87.60
2022-10-09T20:24:28.122Z,87.60
2022-10-09T20:29:56.603Z,87.60
2022-10-09T20:35:38.846Z,87.60
2022-10-09T20:41:14.626Z,87.60
2022-10-09T20:46:49.574Z,87.70
2022-10-09T20:52:24.980Z,88.80
2022-10-09T20:57:56.386Z,88.90
2022-10-09T21:03:28.813Z,88.90
2022-10-09T21:09:05.774Z,89.00
2022-10-09T21:14:39.861Z,89.10
2022-10-09T21:20:17.988Z,89.10
2022-10-09T21:25:57.645Z,89.00
2022-10-09T21:31:32.278Z,89.10
2022-10-09T21:42:52.785Z,89.20
2022-10-09T21:48:21.864Z,89.30
2022-10-09T21:53:54.147Z,89.30
2022-10-09T21:59:26.090Z,89.40
2022-10-09T22:10:54.844Z,89.50
2022-10-09T22:16:48.328Z,89.60
2022-10-09T22:22:33.013Z,89.60
2022-10-09T22:28:30.072Z,89.70
2022-10-09T22:34:04.107Z,89.70
2022-10-09T22:39:56.360Z,89.70
2022-10-09T22:45:30.308Z,89.80
2022-10-09T22:51:29.289Z,89.80
2022-10-09T22:56:58.697Z,89.90
2022-10-09T23:02:26.560Z,90.00
2022-10-09T23:07:57.485Z,90.00
2022-10-09T23:13:27.517Z,90.00
2022-10-09T23:18:58.209Z,90.10
2022-10-09T23:24:27.059Z,90.10
2022-10-09T23:30:00.718Z,90.20
2022-10-09T23:35:28.645Z,90.30
2022-10-09T23:41:05.425Z,90.40
2022-10-09T23:46:34.087Z,90.50
2022-10-09T23:52:01.930Z,90.50
2022-10-09T23:57:29.824Z,90.50
